Aldan, Pennsylvania
Current Conditions -  °F | °C
As of 2:54 PM on Saturday 25 Oct 2014 (Local Time) from KPHL Reporting Station
Few Clouds Few Clouds  
Wind Chill: 21°   Ceiling: Unl
Heat Index: 21°   Visibility: 10mi
Dew Point:   Wind: 16mph
Humidity: 39%   Direction: 260°W
Pressure: 29.76"   Gusts: NA
Location:  39.9228°N, 75.2984°W
Report Text: KPHL 251854Z 26014KT 10SM FEW055 21/07 A2976 RMK AO2 SLP077 T02110067
Loading
Personal Weather Stations






























Interactive Weather Map
Tropical Storm Tracking
New forecast layout! Learn more

10-Day Weather Forecast

Advertisements
Track Severe Weather on mobile